Aeroporto :
LOGIN :

Iscrizione | Disclaimer

   EN    FR    IT 

 










Sommario :    VFR   VFR Marginale   IFR   IFR Intensivo   IFR Molto Intensivo
Visibilità : 
Base nubi : 
>= 8 km
>= 3000ft
5 / 8 km
1000 / 3000 ft
1500m / 5 km
500 / 1000 ft
800 / 1500m
200 / 500 ft
< 800m
< 200 ft
Simboli :   Temporali  Nebbia  Neve Forte  Precipitazioni Forti  Vento > 20 kt
SIGMETs :   Varie  Temporali  Ghiacco  Turbolenza  Onda orograficha  Ceneri Vulcaniche






- Altitudine del aeroporto : 33 ft
- Codice IATA : PLQ


EYPA - Palanga

ULTIMO METAR :
  • 090220Z AUTO 24010G20KT 190V280 9999 BKN017/// 08/06 Q0991

METARs OBSOLETI :
  • 090150Z AUTO 24010KT 200V280 9999 BKN016/// BKN120/// 08/06 Q0991
  • 090120Z AUTO 24010KT 180V280 9999 BKN017/// BKN120/// 08/06 Q0991
  • 090050Z AUTO 24010KT 200V320 9999 BKN017/// BKN120/// 08/06 Q0991
  • 090020Z AUTO 24010G20KT 170V290 9999 BKN017/// 08/06 Q0990
  • 082350Z AUTO 24010KT 190V290 9999 SCT016/// BKN043/// 08/06 Q0990

TAF TAF EYPA
Valido dal 09 a 00 ore il 10 a 00 ore UTC


082300Z 0900/0924 21012G24KT 8000 BKN015
TEMPO 0900/0906 24022G34KT 5000 SHRA SCT005 BKN018CB
TEMPO 0906/0918 24022G34KT 3000 SHRA BKN018CB
TEMPO 0918/0924 BKN018CB



MetMap, La meteo Aeronautica in un colpo d'occhio ! - Copyright ORBIFLY Dicembre 2007 - Disclaimer

ORBIFLY MET'MAP TEAM :

Programmazione e sviluppo : Alexandra Zaïnal
Concezione : Baudouin d'Aumeries
Aiuto per la programmazione : Marc-Olivier Méhu
Supporto tecnico e logistico : Manuel Goepfert
Aiuto per la traduzione : Arnaldo La Scala

Contatto : metmap@orbifly.com




FONTI E CREDITI :

   NOAA